Terminal Aerodrome Forecast
Issued by NWS Paducah, KY

Home | Current Version | Previous Version | Text Only | Print | Product List | Glossary On
Versions: 1 2 3 4 5 6 7 8 9 10 11 12 13
000
FTUS43 KPAH 230520
TAFPAH
TAF
KPAH 230520Z 2306/2406 13003KT P6SM BKN150
     FM231900 23004KT P6SM BKN100
     FM240000 VRB03KT 6SM -SHRA BKN090=

USA.gov is the U.S. government's official web portal to all federal, state and local government web resources and services.